Flugplatz Bartholomä-Amalienhof

Für EDPU sind keine METAR/TAF Berichte vorhanden.
Es werden die Flugwettermeldungen vom Flugplatz Adolf Würth in 44 km Entfernung angezeigt.

Bericht für EDTY

vom 25.09. um 20:20 UTC

Wind 10 kt aus 250°

Sichtweite 10 km oder mehr

aufgebrochene Bewölkung in 1400 ft

bedeckt in 2200 ft

Temperatur 9.0°C

Taupunkt 6.0°C

Luftfeuchtigkeit 81%

Luftdruck 1000 hPa

EDTY 252020Z AUTO 25010KT 9999 // BKN014/// OVC022/// 09/06 Q1000

Prognose für EDTY

vom 25.09. um 17:00 UTC

Zwischen 18:00 UTC und 03:00 UTC

Wind 6 kt aus 220°

Sichtweite 10 km oder mehr

aufgelockert bewölkt in 4500 ft

TAF EDTY 251700Z 2518/2603 22006KT 9999 SCT045
Impressum